Time,TemperatureF,DewpointF,PressureIn,WindDirection,WindDirectionDegrees,WindSpeedMPH,WindSpeedGustMPH,Humidity,HourlyPrecipIn,Conditions,Clouds,dailyrainin,SolarRadiationWatts/m^2,SoftwareType,DateUTC
2013-03-07 00:05:00,20.0,17.8,30.41,NNE,28,0.0,0.0,91,0.00,-SN,,0.00,0.0,WeatherDisplay:10.37,2013-03-07 06:05:00,
2013-03-07 00:10:00,20.0,17.8,30.41,NNE,28,0.0,0.0,91,0.00,-SN,,0.00,0.0,WeatherDisplay:10.37,2013-03-07 06:10:00,
2013-03-07 00:15:00,19.9,17.4,30.42,NNE,28,0.0,0.0,90,0.00,CLR,,0.00,0.0,WeatherDisplay:10.37,2013-03-07 06:15:00,
2013-03-07 00:20:00,19.7,17.2,30.42,NNE,28,0.0,0.0,90,0.00,CLR,,0.00,0.0,WeatherDisplay:10.37,2013-03-07 06:20:00,
2013-03-07 00:26:00,19.7,17.2,30.43,NNE,28,0.0,0.0,90,0.00,CLR,,0.00,0.0,WeatherDisplay:10.37,2013-03-07 06:26:00,
2013-03-07 00:31:00,19.5,17.0,30.42,NNE,28,0.0,0.0,90,0.00,CLR,,0.00,0.0,WeatherDisplay:10.37,2013-03-07 06:31:00,
2013-03-07 00:36:00,19.5,17.0,30.43,NNE,28,0.0,0.0,90,0.00,CLR,CLR,0.00,0.0,WeatherDisplay:10.37,2013-03-07 06:36:00,
2013-03-07 00:41:00,19.4,16.9,30.43,NNE,28,0.0,0.0,90,0.00,CLR,,0.00,0.0,WeatherDisplay:10.37,2013-03-07 06:41:00,
2013-03-07 00:46:00,19.4,17.2,30.42,NNE,28,0.0,0.0,91,0.00,CLR,,0.00,0.0,WeatherDisplay:10.37,2013-03-07 06:46:00,
2013-03-07 00:52:00,19.4,17.2,30.42,NNE,28,0.0,0.0,91,0.00,CLR,,0.00,0.0,WeatherDisplay:10.37,2013-03-07 06:52:00,
2013-03-07 00:57:00,19.4,17.2,30.42,NNE,28,0.0,0.0,91,0.00,CLR,,0.00,0.0,WeatherDisplay:10.37,2013-03-07 06:57:00,
2013-03-07 01:02:00,19.3,17.1,30.42,NNE,28,0.0,0.0,91,0.00,CLR,,0.00,0.0,WeatherDisplay:10.37,2013-03-07 07:02:00,
2013-03-07 01:07:00,19.2,17.0,30.43,NNE,28,0.0,0.0,91,0.00,CLR,,0.00,0.0,WeatherDisplay:10.37,2013-03-07 07:07:00,
2013-03-07 01:13:00,19.0,16.8,30.44,NNE,28,0.0,0.0,91,0.00,CLR,,0.00,0.0,WeatherDisplay:10.37,2013-03-07 07:13:00,
2013-03-07 01:18:00,18.8,16.6,30.43,NNE,28,0.0,0.0,91,0.00,CLR,,0.00,0.0,WeatherDisplay:10.37,2013-03-07 07:18:00,
2013-03-07 01:23:00,18.7,16.5,30.44,NNE,28,0.0,0.0,91,0.00,CLR,,0.00,0.0,WeatherDisplay:10.37,2013-03-07 07:23:00,
2013-03-07 01:28:00,18.6,16.4,30.44,NNE,28,0.0,0.0,91,0.00,CLR,,0.00,0.0,WeatherDisplay:10.37,2013-03-07 07:28:00,
2013-03-07 01:34:00,18.4,16.2,30.44,NNE,28,0.0,0.0,91,0.00,CLR,,0.00,0.0,WeatherDisplay:10.37,2013-03-07 07:34:00,
2013-03-07 01:39:00,18.4,16.2,30.43,NNE,28,0.0,0.0,91,0.00,CLR,,0.00,0.0,WeatherDisplay:10.37,2013-03-07 07:39:00,
2013-03-07 01:44:00,18.5,16.6,30.44,NNE,28,0.0,0.0,92,0.00,CLR,,0.00,0.0,WeatherDisplay:10.37,2013-03-07 07:44:00,
2013-03-07 01:49:00,18.5,16.6,30.44,NNE,28,0.0,0.0,92,0.00,CLR,,0.00,0.0,WeatherDisplay:10.37,2013-03-07 07:49:00,
2013-03-07 01:55:00,18.4,16.2,30.44,NNE,28,0.0,0.0,91,0.00,CLR,,0.00,0.0,WeatherDisplay:10.37,2013-03-07 07:55:00,
2013-03-07 02:00:00,18.2,16.0,30.44,NNE,28,0.0,0.0,91,0.00,CLR,,0.00,0.0,WeatherDisplay:10.37,2013-03-07 08:00:00,
2013-03-07 02:05:00,18.4,16.5,30.43,NNE,28,0.0,0.0,92,0.00,CLR,,0.00,0.0,WeatherDisplay:10.37,2013-03-07 08:05:00,
2013-03-07 02:10:00,18.5,16.6,30.43,NNE,28,0.0,0.0,92,0.00,CLR,,0.00,0.0,WeatherDisplay:10.37,2013-03-07 08:10:00,
2013-03-07 02:16:00,18.5,16.6,30.43,NNE,28,0.0,0.0,92,0.00,CLR,,0.00,0.0,WeatherDisplay:10.37,2013-03-07 08:16:00,
2013-03-07 02:21:00,18.5,16.6,30.42,NNE,28,0.0,0.0,92,0.00,CLR,,0.00,0.0,WeatherDisplay:10.37,2013-03-07 08:21:00,
2013-03-07 02:26:00,18.4,16.5,30.42,NNE,28,0.0,0.0,92,0.00,CLR,CLR,0.00,0.0,WeatherDisplay:10.37,2013-03-07 08:26:00,
2013-03-07 02:31:00,18.2,16.0,30.42,NNE,28,0.0,0.0,91,0.00,CLR,,0.00,0.0,WeatherDisplay:10.37,2013-03-07 08:31:00,
2013-03-07 02:36:00,18.0,15.8,30.41,NNE,28,0.0,0.0,91,0.00,CLR,,0.00,0.0,WeatherDisplay:10.37,2013-03-07 08:36:00,
2013-03-07 02:42:00,17.9,16.0,30.41,NNE,28,0.0,0.0,92,0.00,CLR,,0.00,0.0,WeatherDisplay:10.37,2013-03-07 08:42:00,
2013-03-07 02:47:00,17.7,15.5,30.41,NNE,28,0.0,0.0,91,0.00,CLR,,0.00,0.0,WeatherDisplay:10.37,2013-03-07 08:47:00,
2013-03-07 02:52:00,17.7,15.8,30.40,NNE,28,0.0,0.0,92,0.00,CLR,,0.00,0.0,WeatherDisplay:10.37,2013-03-07 08:52:00,
2013-03-07 02:57:00,17.8,15.9,30.41,NNE,28,0.0,0.0,92,0.00,CLR,,0.00,0.0,WeatherDisplay:10.37,2013-03-07 08:57:00,
2013-03-07 03:03:00,17.8,15.9,30.40,NNE,28,0.0,0.0,92,0.00,CLR,,0.00,0.0,WeatherDisplay:10.37,2013-03-07 09:03:00,
2013-03-07 03:08:00,18.1,16.4,30.40,NNE,28,0.0,0.0,93,0.00,CLR,,0.00,0.0,WeatherDisplay:10.37,2013-03-07 09:08:00,
2013-03-07 03:13:00,18.4,16.7,30.41,NNE,28,0.0,0.0,93,0.00,CLR,,0.00,0.0,WeatherDisplay:10.37,2013-03-07 09:13:00,
2013-03-07 03:18:00,18.3,16.6,30.40,NNE,28,0.0,0.0,93,0.00,CLR,,0.00,0.0,WeatherDisplay:10.37,2013-03-07 09:18:00,
2013-03-07 03:24:00,18.4,16.7,30.40,NNE,28,0.0,0.0,93,0.00,CLR,,0.00,0.0,WeatherDisplay:10.37,2013-03-07 09:24:00,
2013-03-07 03:29:00,18.6,16.9,30.40,East,93,0.0,2.3,93,0.00,CLR,,0.00,0.0,WeatherDisplay:10.37,2013-03-07 09:29:00,
2013-03-07 03:34:00,19.0,17.3,30.40,East,93,0.0,0.0,93,0.00,CLR,,0.00,0.0,WeatherDisplay:10.37,2013-03-07 09:34:00,
2013-03-07 03:39:00,19.1,17.4,30.41,East,93,0.0,0.0,93,0.00,CLR,,0.00,0.0,WeatherDisplay:10.37,2013-03-07 09:39:00,
2013-03-07 03:45:00,19.3,17.6,30.41,East,93,0.0,0.0,93,0.00,CLR,,0.00,0.0,WeatherDisplay:10.37,2013-03-07 09:45:00,
2013-03-07 03:50:00,19.4,17.7,30.41,East,94,0.0,0.0,93,0.00,CLR,,0.00,0.0,WeatherDisplay:10.37,2013-03-07 09:50:00,
2013-03-07 03:55:00,19.3,17.4,30.41,East,94,0.0,0.0,92,0.00,CLR,,0.00,0.0,WeatherDisplay:10.37,2013-03-07 09:55:00,
2013-03-07 04:00:00,19.1,17.2,30.41,East,94,0.0,0.0,92,0.00,CLR,,0.00,0.0,WeatherDisplay:10.37,2013-03-07 10:00:00,
2013-03-07 04:06:00,19.1,17.2,30.41,East,94,0.0,0.0,92,0.00,CLR,,0.00,0.0,WeatherDisplay:10.37,2013-03-07 10:06:00,
2013-03-07 04:11:00,18.9,17.0,30.41,East,94,0.0,0.0,92,0.00,CLR,,0.00,0.0,WeatherDisplay:10.37,2013-03-07 10:11:00,
2013-03-07 04:16:00,18.6,16.4,30.41,East,94,0.0,0.0,91,0.00,CLR,CLR,0.00,0.0,WeatherDisplay:10.37,2013-03-07 10:16:00,
2013-03-07 04:21:00,18.4,16.5,30.41,East,94,0.0,0.0,92,0.00,CLR,,0.00,0.0,WeatherDisplay:10.37,2013-03-07 10:21:00,
2013-03-07 04:26:00,18.2,16.0,30.41,East,94,0.0,0.0,91,0.00,CLR,CLR,0.00,0.0,WeatherDisplay:10.37,2013-03-07 10:26:00,
2013-03-07 04:31:00,18.0,15.8,30.41,East,94,0.0,0.0,91,0.00,CLR,,0.00,0.0,WeatherDisplay:10.37,2013-03-07 10:31:00,
2013-03-07 04:36:00,17.9,16.0,30.41,East,94,0.0,0.0,92,0.00,CLR,,0.00,0.0,WeatherDisplay:10.37,2013-03-07 10:36:00,
2013-03-07 04:42:00,18.0,16.1,30.41,East,94,0.0,0.0,92,0.00,CLR,,0.00,0.0,WeatherDisplay:10.37,2013-03-07 10:42:00,
2013-03-07 04:47:00,18.1,16.2,30.41,ESE,110,0.5,1.0,92,0.00,CLR,,0.00,0.0,WeatherDisplay:10.37,2013-03-07 10:47:00,
2013-03-07 04:52:00,18.5,16.8,30.41,ESE,110,0.0,0.0,93,0.00,CLR,,0.00,0.0,WeatherDisplay:10.37,2013-03-07 10:52:00,
2013-03-07 04:57:00,18.6,16.9,30.41,ESE,110,0.0,0.0,93,0.00,CLR,,0.00,0.0,WeatherDisplay:10.37,2013-03-07 10:57:00,
2013-03-07 05:03:00,18.8,17.1,30.41,ESE,110,0.0,0.0,93,0.00,CLR,,0.00,0.0,WeatherDisplay:10.37,2013-03-07 11:03:00,
2013-03-07 05:08:00,18.9,17.2,30.41,ESE,110,0.0,0.0,93,0.00,CLR,,0.00,0.0,WeatherDisplay:10.37,2013-03-07 11:08:00,
2013-03-07 05:13:00,18.9,17.2,30.41,ESE,110,0.0,0.0,93,0.00,CLR,,0.00,0.0,WeatherDisplay:10.37,2013-03-07 11:13:00,
2013-03-07 05:18:00,18.9,17.0,30.41,ESE,110,0.0,0.0,92,0.00,CLR,,0.00,0.0,WeatherDisplay:10.37,2013-03-07 11:18:00,
2013-03-07 05:24:00,18.9,17.0,30.41,ESE,112,0.1,1.2,92,0.00,CLR,,0.00,0.0,WeatherDisplay:10.37,2013-03-07 11:24:00,
2013-03-07 05:29:00,18.9,17.0,30.42,ESE,112,0.0,0.0,92,0.00,CLR,,0.00,0.0,WeatherDisplay:10.37,2013-03-07 11:29:00,
2013-03-07 05:34:00,18.9,17.0,30.42,ESE,112,0.0,0.0,92,0.00,CLR,,0.00,0.0,WeatherDisplay:10.37,2013-03-07 11:34:00,
2013-03-07 05:39:00,18.8,16.9,30.42,ESE,112,0.0,0.0,92,0.00,CLR,,0.00,0.0,WeatherDisplay:10.37,2013-03-07 11:39:00,
2013-03-07 05:45:00,18.6,16.7,30.42,ESE,112,0.0,0.0,92,0.00,CLR,,0.00,0.0,WeatherDisplay:10.37,2013-03-07 11:45:00,
2013-03-07 05:50:00,18.5,16.6,30.42,ESE,112,0.0,0.0,92,0.00,CLR,,0.00,0.0,WeatherDisplay:10.37,2013-03-07 11:50:00,
2013-03-07 05:55:00,18.4,16.5,30.42,ESE,112,0.0,0.0,92,0.00,CLR,,0.00,0.0,WeatherDisplay:10.37,2013-03-07 11:55:00,
2013-03-07 06:00:00,18.4,16.5,30.42,ESE,112,0.0,0.0,92,0.00,CLR,,0.00,0.0,WeatherDisplay:10.37,2013-03-07 12:00:00,
2013-03-07 06:06:00,18.5,16.6,30.42,ESE,112,0.0,0.0,92,0.00,CLR,,0.00,0.0,WeatherDisplay:10.37,2013-03-07 12:06:00,
2013-03-07 06:11:00,18.5,16.6,30.42,ESE,112,0.0,0.0,92,0.00,CLR,,0.00,0.0,WeatherDisplay:10.37,2013-03-07 12:11:00,
2013-03-07 06:16:00,18.5,16.6,30.42,ESE,112,0.0,0.0,92,0.00,CLR,CLR,0.00,0.0,WeatherDisplay:10.37,2013-03-07 12:16:00,
2013-03-07 06:21:00,18.5,16.8,30.42,ESE,112,0.1,1.2,93,0.00,CLR,,0.00,0.0,WeatherDisplay:10.37,2013-03-07 12:21:00,
2013-03-07 06:26:00,18.6,16.7,30.42,ESE,112,0.0,0.0,92,0.00,CLR,,0.00,0.0,WeatherDisplay:10.37,2013-03-07 12:26:00,
2013-03-07 06:32:00,18.6,16.9,30.42,ESE,112,0.0,0.0,93,0.00,CLR,,0.00,0.0,WeatherDisplay:10.37,2013-03-07 12:32:00,
2013-03-07 06:37:00,18.5,16.8,30.42,ESE,112,0.0,0.0,93,0.00,CLR,,0.00,0.0,WeatherDisplay:10.37,2013-03-07 12:37:00,
2013-03-07 06:42:00,18.5,16.6,30.43,ESE,112,0.0,0.0,92,0.00,CLR,,0.00,7.0,WeatherDisplay:10.37,2013-03-07 12:42:00,
2013-03-07 06:47:00,18.5,16.6,30.43,ESE,112,0.0,0.0,92,0.00,CLR,,0.00,9.8,WeatherDisplay:10.37,2013-03-07 12:47:00,
2013-03-07 06:53:00,18.5,16.6,30.43,East,96,0.3,1.2,92,0.00,CLR,,0.00,15.4,WeatherDisplay:10.37,2013-03-07 12:53:00,
2013-03-07 06:58:00,18.6,16.9,30.43,ESE,111,0.2,2.3,93,0.00,CLR,,0.00,19.6,WeatherDisplay:10.37,2013-03-07 12:58:00,
2013-03-07 07:03:00,18.6,16.9,30.43,ESE,111,0.3,2.3,93,0.00,CLR,,0.00,26.6,WeatherDisplay:10.37,2013-03-07 13:03:00,
2013-03-07 07:08:00,18.8,17.1,30.43,SE,136,1.0,2.3,93,0.00,CLR,,0.00,35.0,WeatherDisplay:10.37,2013-03-07 13:08:00,
2013-03-07 07:14:00,18.9,17.2,30.43,South,172,0.6,2.3,93,0.00,CLR,,0.00,36.4,WeatherDisplay:10.37,2013-03-07 13:14:00,
2013-03-07 07:19:00,19.0,17.3,30.44,ESE,120,0.2,2.3,93,0.00,CLR,,0.00,42.0,WeatherDisplay:10.37,2013-03-07 13:19:00,
2013-03-07 07:24:00,19.0,17.3,30.45,ESE,103,1.4,2.3,93,0.00,CLR,,0.00,46.2,WeatherDisplay:10.37,2013-03-07 13:24:00,
2013-03-07 07:29:00,19.2,17.5,30.45,ESE,103,0.5,2.3,93,0.00,CLR,,0.00,49.0,WeatherDisplay:10.37,2013-03-07 13:29:00,
2013-03-07 07:35:00,19.4,17.7,30.45,ESE,103,0.0,0.0,93,0.00,CLR,,0.00,58.8,WeatherDisplay:10.37,2013-03-07 13:35:00,
2013-03-07 07:40:00,19.5,17.8,30.44,ESE,103,0.0,0.0,93,0.00,CLR,,0.00,86.8,WeatherDisplay:10.37,2013-03-07 13:40:00,
2013-03-07 07:45:00,19.8,18.1,30.44,ESE,113,1.0,2.3,93,0.00,CLR,,0.00,116.2,WeatherDisplay:10.37,2013-03-07 13:45:00,
2013-03-07 07:50:00,20.1,18.4,30.44,East,101,0.5,2.3,93,0.00,CLR,,0.00,162.4,WeatherDisplay:10.37,2013-03-07 13:50:00,
2013-03-07 07:56:00,20.2,18.5,30.44,East,84,0.0,0.0,93,0.00,CLR,,0.00,110.6,WeatherDisplay:10.37,2013-03-07 13:56:00,
2013-03-07 08:01:00,20.9,19.2,30.44,ESE,105,0.4,2.3,93,0.00,CLR,,0.00,74.2,WeatherDisplay:10.37,2013-03-07 14:01:00,
2013-03-07 08:06:00,21.1,19.1,30.45,ESE,105,1.0,3.0,92,0.00,CLR,CLR,0.00,201.6,WeatherDisplay:10.37,2013-03-07 14:06:00,
2013-03-07 08:11:00,21.3,19.3,30.45,East,79,0.1,1.2,92,0.00,CLR,,0.00,81.2,WeatherDisplay:10.37,2013-03-07 14:11:00,
2013-03-07 08:16:00,21.6,19.4,30.45,East,100,1.0,2.3,91,0.00,CLR,,0.00,207.2,WeatherDisplay:10.37,2013-03-07 14:16:00,
2013-03-07 08:22:00,21.7,19.5,30.45,East,99,0.6,2.3,91,0.00,CLR,,0.00,120.4,WeatherDisplay:10.37,2013-03-07 14:22:00,
2013-03-07 08:27:00,22.1,19.9,30.45,ESE,115,2.0,3.5,91,0.00,CLR,,0.00,96.6,WeatherDisplay:10.37,2013-03-07 14:27:00,
2013-03-07 08:32:00,22.4,19.9,30.45,ESE,111,0.5,2.3,90,0.00,CLR,,0.00,107.8,WeatherDisplay:10.37,2013-03-07 14:32:00,
2013-03-07 08:37:00,23.0,20.5,30.45,East,86,1.7,3.5,90,0.00,CLR,,0.00,266.0,WeatherDisplay:10.37,2013-03-07 14:37:00,
2013-03-07 08:43:00,23.5,20.7,30.44,SE,128,0.6,5.8,89,0.00,CLR,,0.00,317.8,WeatherDisplay:10.37,2013-03-07 14:43:00,
2013-03-07 08:48:00,23.8,20.8,30.45,SE,124,2.9,4.0,88,0.00,CLR,,0.00,380.8,WeatherDisplay:10.37,2013-03-07 14:48:00,
2013-03-07 08:54:00,24.1,21.1,30.44,ESE,114,1.5,2.3,88,0.00,CLR,,0.00,401.8,WeatherDisplay:10.37,2013-03-07 14:54:00,
2013-03-07 08:59:00,24.4,21.1,30.44,ESE,106,0.0,2.3,87,0.00,CLR,,0.00,282.8,WeatherDisplay:10.37,2013-03-07 14:59:00,
2013-03-07 09:04:00,24.9,21.6,30.44,East,85,2.4,3.5,87,0.00,CLR,,0.00,334.6,WeatherDisplay:10.37,2013-03-07 15:04:00,
2013-03-07 09:09:00,25.2,21.6,30.44,ESE,123,3.4,8.1,86,0.00,CLR,,0.00,435.4,WeatherDisplay:10.37,2013-03-07 15:09:00,
2013-03-07 09:15:00,25.6,22.0,30.43,ESE,107,0.6,2.3,86,0.00,CLR,,0.00,551.6,WeatherDisplay:10.37,2013-03-07 15:15:00,
2013-03-07 09:20:00,25.7,21.8,30.43,SE,140,1.0,3.5,85,0.00,CLR,,0.00,289.8,WeatherDisplay:10.37,2013-03-07 15:20:00,
2013-03-07 09:25:00,26.0,21.8,30.43,ESE,121,2.2,3.5,84,0.00,CLR,,0.00,536.2,WeatherDisplay:10.37,2013-03-07 15:25:00,
2013-03-07 09:30:00,26.2,21.7,30.44,ESE,119,1.8,3.5,83,0.00,CLR,,0.00,233.8,WeatherDisplay:10.37,2013-03-07 15:30:00,
2013-03-07 09:36:00,26.3,21.8,30.44,SSE,159,2.9,5.8,83,0.00,CLR,,0.00,165.2,WeatherDisplay:10.37,2013-03-07 15:36:00,
2013-03-07 09:41:00,26.2,21.7,30.44,SW,223,1.4,3.5,83,0.00,CLR,,0.00,179.2,WeatherDisplay:10.37,2013-03-07 15:41:00,
2013-03-07 09:46:00,26.3,21.8,30.44,SSE,152,2.0,8.0,83,0.00,CLR,CLR,0.00,168.0,WeatherDisplay:10.37,2013-03-07 15:46:00,
2013-03-07 09:51:00,26.5,22.0,30.44,South,177,1.7,3.5,83,0.00,CLR,,0.00,383.6,WeatherDisplay:10.37,2013-03-07 15:51:00,
2013-03-07 09:57:00,26.7,21.9,30.43,ENE,62,2.4,4.6,82,0.00,CLR,,0.00,317.8,WeatherDisplay:10.37,2013-03-07 15:57:00,
2013-03-07 10:02:00,26.7,21.9,30.43,SE,133,1.7,3.5,82,0.00,CLR,,0.00,347.2,WeatherDisplay:10.37,2013-03-07 16:02:00,
2013-03-07 10:07:00,26.9,22.1,30.43,SE,143,1.7,3.5,82,0.00,CLR,,0.00,575.4,WeatherDisplay:10.37,2013-03-07 16:07:00,
2013-03-07 10:12:00,27.5,22.4,30.43,SSE,158,2.4,6.9,81,0.00,CLR,,0.00,681.8,WeatherDisplay:10.37,2013-03-07 16:12:00,
2013-03-07 10:18:00,27.7,22.0,30.43,ESE,117,1.8,3.5,79,0.00,CLR,,0.00,676.2,WeatherDisplay:10.37,2013-03-07 16:18:00,
2013-03-07 10:23:00,28.2,22.8,30.43,SSE,167,0.0,1.2,80,0.00,CLR,,0.00,792.4,WeatherDisplay:10.37,2013-03-07 16:23:00,
2013-03-07 10:28:00,28.9,22.6,30.43,ESE,119,2.1,3.5,77,0.00,CLR,,0.00,765.8,WeatherDisplay:10.37,2013-03-07 16:28:00,
2013-03-07 10:33:00,29.2,22.6,30.43,ESE,122,2.2,3.5,76,0.00,CLR,,0.00,805.0,WeatherDisplay:10.37,2013-03-07 16:33:00,
2013-03-07 10:39:00,29.3,23.0,30.43,ESE,120,3.8,7.0,77,0.00,CLR,,0.00,910.0,WeatherDisplay:10.37,2013-03-07 16:39:00,
2013-03-07 10:44:00,29.5,22.9,30.42,ESE,105,1.1,3.5,76,0.00,CLR,,0.00,928.2,WeatherDisplay:10.37,2013-03-07 16:44:00,
2013-03-07 10:49:00,30.1,23.1,30.42,ESE,117,2.1,6.0,75,0.00,CLR,,0.00,938.0,WeatherDisplay:10.37,2013-03-07 16:49:00,
2013-03-07 10:54:00,30.4,24.1,30.42,NE,38,0.8,3.0,77,0.00,CLR,,0.00,952.0,WeatherDisplay:10.37,2013-03-07 16:54:00,
2013-03-07 11:00:00,31.1,24.1,30.41,ENE,59,0.8,2.3,75,0.00,CLR,,0.00,970.2,WeatherDisplay:10.37,2013-03-07 17:00:00,
2013-03-07 11:05:00,30.8,23.2,30.41,SE,127,0.8,3.5,73,0.00,CLR,,0.00,989.8,WeatherDisplay:10.37,2013-03-07 17:05:00,
2013-03-07 11:10:00,31.0,23.4,30.40,ESE,114,2.2,3.5,73,0.00,CLR,,0.00,994.0,WeatherDisplay:10.37,2013-03-07 17:10:00,
2013-03-07 11:15:00,31.1,23.8,30.41,ESE,112,0.8,3.5,74,0.00,CLR,,0.00,945.0,WeatherDisplay:10.37,2013-03-07 17:15:00,
2013-03-07 11:21:00,31.5,23.8,30.41,East,91,2.8,6.0,73,0.00,CLR,,0.00,770.0,WeatherDisplay:10.37,2013-03-07 17:21:00,
2013-03-07 11:26:00,32.0,24.0,30.40,SE,138,2.1,3.5,72,0.00,CLR,,0.00,827.4,WeatherDisplay:10.37,2013-03-07 17:26:00,
2013-03-07 11:31:00,31.6,23.6,30.40,East,85,1.9,3.5,72,0.00,CLR,,0.00,893.2,WeatherDisplay:10.37,2013-03-07 17:31:00,
2013-03-07 11:36:00,32.1,24.4,30.40,ESE,118,2.9,8.0,73,0.00,CLR,,0.00,970.2,WeatherDisplay:10.37,2013-03-07 17:36:00,
2013-03-07 11:42:00,31.7,24.0,30.40,SSE,148,2.9,3.5,73,0.00,CLR,,0.00,1043.0,WeatherDisplay:10.37,2013-03-07 17:42:00,
2013-03-07 11:47:00,32.8,25.1,30.40,ESE,109,1.4,3.5,73,0.00,CLR,,0.00,964.6,WeatherDisplay:10.37,2013-03-07 17:47:00,
2013-03-07 11:52:00,33.0,24.3,30.40,ESE,111,3.3,6.0,70,0.01,RA,,0.01,960.4,WeatherDisplay:10.37,2013-03-07 17:52:00,
2013-03-07 11:57:00,33.6,24.5,30.40,East,82,2.1,7.0,69,0.01,CLR,,0.01,957.6,WeatherDisplay:10.37,2013-03-07 17:57:00,
2013-03-07 12:03:00,33.0,24.3,30.39,ESE,105,2.6,4.0,70,0.01,CLR,,0.01,980.0,WeatherDisplay:10.37,2013-03-07 18:03:00,
2013-03-07 12:08:00,33.3,24.2,30.39,ESE,118,3.4,8.1,69,0.01,CLR,,0.01,1003.8,WeatherDisplay:10.37,2013-03-07 18:08:00,
2013-03-07 12:13:00,33.3,24.2,30.39,ESE,112,4.7,9.2,69,0.01,CLR,,0.01,1003.8,WeatherDisplay:10.37,2013-03-07 18:13:00,
2013-03-07 12:19:00,33.3,24.6,30.39,ESE,105,5.1,6.9,70,0.01,CLR,,0.01,1033.2,WeatherDisplay:10.37,2013-03-07 18:19:00,
2013-03-07 12:24:00,33.8,25.0,30.39,East,101,1.3,3.5,70,0.01,CLR,,0.01,994.0,WeatherDisplay:10.37,2013-03-07 18:24:00,
2013-03-07 12:29:00,33.9,25.1,30.38,ESE,113,1.7,3.5,70,0.01,CLR,,0.01,1019.2,WeatherDisplay:10.37,2013-03-07 18:29:00,
2013-03-07 12:34:00,34.4,25.3,30.38,ESE,111,2.7,4.6,69,0.01,CLR,,0.01,987.0,WeatherDisplay:10.37,2013-03-07 18:34:00,
2013-03-07 12:40:00,34.5,25.0,30.38,SE,128,4.3,9.2,68,0.01,CLR,,0.01,1043.0,WeatherDisplay:10.37,2013-03-07 18:40:00,
2013-03-07 12:45:00,34.9,25.4,30.38,ESE,119,2.6,7.0,68,0.01,CLR,,0.01,991.2,WeatherDisplay:10.37,2013-03-07 18:45:00,
2013-03-07 12:50:00,34.7,25.2,30.38,ESE,110,2.6,3.5,68,0.00,CLR,,0.01,996.8,WeatherDisplay:10.37,2013-03-07 18:50:00,
2013-03-07 12:56:00,34.8,25.7,30.37,ENE,64,1.3,3.5,69,0.00,CLR,,0.01,686.0,WeatherDisplay:10.37,2013-03-07 18:56:00,
2013-03-07 13:01:00,34.9,25.0,30.37,ENE,75,3.0,6.9,67,0.00,CLR,,0.01,1090.6,WeatherDisplay:10.37,2013-03-07 19:01:00,
2013-03-07 13:06:00,35.0,25.5,30.36,East,98,2.0,7.0,68,0.00,CLR,CLR,0.01,912.8,WeatherDisplay:10.37,2013-03-07 19:06:00,
2013-03-07 13:11:00,34.9,25.4,30.36,ESE,104,2.9,4.0,68,0.00,CLR,,0.01,886.2,WeatherDisplay:10.37,2013-03-07 19:11:00,
2013-03-07 13:17:00,35.6,26.4,30.36,SE,141,1.7,4.0,69,0.00,CLR,,0.01,938.0,WeatherDisplay:10.37,2013-03-07 19:17:00,
2013-03-07 13:22:00,35.5,25.6,30.35,SE,136,3.8,4.6,67,0.00,CLR,,0.01,996.8,WeatherDisplay:10.37,2013-03-07 19:22:00,
2013-03-07 13:27:00,36.1,26.6,30.35,East,82,2.7,5.0,68,0.00,CLR,,0.01,967.4,WeatherDisplay:10.37,2013-03-07 19:27:00,
2013-03-07 13:32:00,35.8,26.3,30.35,ENE,69,2.0,5.8,68,0.00,CLR,,0.01,655.2,WeatherDisplay:10.37,2013-03-07 19:32:00,
2013-03-07 13:37:00,35.8,26.3,30.35,SE,124,2.2,3.5,68,0.00,CLR,,0.01,886.2,WeatherDisplay:10.37,2013-03-07 19:37:00,
2013-03-07 13:42:00,35.9,26.0,30.35,East,96,4.4,8.1,67,0.00,CLR,,0.01,691.6,WeatherDisplay:10.37,2013-03-07 19:42:00,
2013-03-07 13:48:00,35.5,25.6,30.35,East,91,2.6,3.5,67,0.00,CLR,,0.01,737.8,WeatherDisplay:10.37,2013-03-07 19:48:00,
2013-03-07 13:53:00,35.7,25.8,30.35,East,94,3.3,6.9,67,0.00,CLR,,0.01,736.4,WeatherDisplay:10.37,2013-03-07 19:53:00,
2013-03-07 13:58:00,35.8,25.9,30.34,East,80,1.5,3.5,67,0.00,CLR,,0.01,763.0,WeatherDisplay:10.37,2013-03-07 19:58:00,
2013-03-07 14:03:00,35.6,25.7,30.34,ENE,66,3.3,4.6,67,0.00,CLR,,0.01,694.4,WeatherDisplay:10.37,2013-03-07 20:03:00,
2013-03-07 14:09:00,35.8,25.9,30.34,ESE,119,2.6,8.1,67,0.00,CLR,,0.01,669.2,WeatherDisplay:10.37,2013-03-07 20:09:00,
2013-03-07 14:14:00,36.2,26.6,30.34,East,89,3.3,7.0,68,0.00,CLR,,0.01,627.2,WeatherDisplay:10.37,2013-03-07 20:14:00,
2013-03-07 14:19:00,36.1,26.6,30.34,East,82,2.2,3.5,68,0.00,CLR,,0.01,757.4,WeatherDisplay:10.37,2013-03-07 20:19:00,
2013-03-07 14:24:00,36.3,26.0,30.34,ESE,123,1.9,8.1,66,0.00,CLR,,0.01,637.0,WeatherDisplay:10.37,2013-03-07 20:24:00,
2013-03-07 14:30:00,36.1,26.6,30.34,ENE,58,2.0,4.6,68,0.00,CLR,,0.01,740.6,WeatherDisplay:10.37,2013-03-07 20:30:00,
2013-03-07 14:35:00,36.4,26.5,30.34,ENE,68,2.9,9.2,67,0.00,CLR,,0.01,837.2,WeatherDisplay:10.37,2013-03-07 20:35:00,
2013-03-07 14:40:00,36.6,26.7,30.34,East,93,3.1,3.5,67,0.00,CLR,,0.01,548.8,WeatherDisplay:10.37,2013-03-07 20:40:00,
2013-03-07 14:45:00,36.6,27.0,30.34,East,92,1.4,6.0,68,0.00,CLR,,0.01,645.4,WeatherDisplay:10.37,2013-03-07 20:45:00,
2013-03-07 14:51:00,36.1,26.6,30.34,ESE,117,3.8,6.9,68,0.00,CLR,,0.01,614.6,WeatherDisplay:10.37,2013-03-07 20:51:00,
2013-03-07 14:56:00,36.0,26.5,30.34,NE,51,1.7,3.5,68,0.00,CLR,,0.01,359.8,WeatherDisplay:10.37,2013-03-07 20:56:00,
2013-03-07 15:01:00,36.0,26.5,30.34,ENE,64,2.4,5.0,68,0.00,CLR,,0.01,322.0,WeatherDisplay:10.37,2013-03-07 21:01:00,
2013-03-07 15:06:00,36.1,26.9,30.34,NNE,22,0.7,2.3,69,0.00,CLR,,0.01,322.0,WeatherDisplay:10.37,2013-03-07 21:06:00,
2013-03-07 15:12:00,36.6,27.0,30.34,ENE,69,1.8,7.0,68,0.00,CLR,,0.01,506.8,WeatherDisplay:10.37,2013-03-07 21:12:00,
2013-03-07 15:17:00,36.3,26.4,30.34,ESE,122,3.6,6.9,67,0.00,CLR,,0.01,312.2,WeatherDisplay:10.37,2013-03-07 21:17:00,
2013-03-07 15:22:00,35.8,25.9,30.33,ESE,109,3.3,8.0,67,0.00,CLR,,0.01,330.4,WeatherDisplay:10.37,2013-03-07 21:22:00,
2013-03-07 15:28:00,35.9,26.7,30.34,SE,134,3.0,9.0,69,0.00,CLR,,0.01,331.8,WeatherDisplay:10.37,2013-03-07 21:28:00,
2013-03-07 15:33:00,36.0,26.5,30.34,East,98,1.1,3.5,68,0.00,CLR,,0.01,502.6,WeatherDisplay:10.37,2013-03-07 21:33:00,
2013-03-07 15:38:00,36.7,27.1,30.33,NE,40,1.2,3.5,68,0.00,CLR,,0.01,302.4,WeatherDisplay:10.37,2013-03-07 21:38:00,
2013-03-07 15:43:00,36.3,26.7,30.33,NE,35,0.5,3.5,68,0.00,CLR,,0.01,191.8,WeatherDisplay:10.37,2013-03-07 21:43:00,
2013-03-07 15:49:00,36.3,27.1,30.33,North,355,2.2,7.0,69,0.00,CLR,,0.01,175.0,WeatherDisplay:10.37,2013-03-07 21:49:00,
2013-03-07 15:54:00,36.1,26.6,30.33,East,91,1.3,2.3,68,0.00,CLR,,0.01,239.4,WeatherDisplay:10.37,2013-03-07 21:54:00,
2013-03-07 15:59:00,36.0,26.5,30.33,ENE,70,4.6,5.0,68,0.00,CLR,,0.01,340.2,WeatherDisplay:10.37,2013-03-07 21:59:00,
2013-03-07 16:04:00,35.4,26.2,30.33,East,100,1.7,5.8,69,0.00,CLR,,0.01,292.6,WeatherDisplay:10.37,2013-03-07 22:04:00,
2013-03-07 16:10:00,35.4,26.6,30.33,ENE,66,2.6,4.0,70,0.00,CLR,,0.01,289.8,WeatherDisplay:10.37,2013-03-07 22:10:00,
2013-03-07 16:15:00,35.4,26.6,30.33,SE,130,3.1,7.0,70,0.00,CLR,,0.01,260.4,WeatherDisplay:10.37,2013-03-07 22:15:00,
2013-03-07 16:20:00,35.3,26.5,30.33,ESE,104,2.5,3.5,70,0.00,CLR,,0.01,246.4,WeatherDisplay:10.37,2013-03-07 22:20:00,
2013-03-07 16:25:00,34.9,26.1,30.33,ESE,110,1.2,6.9,70,0.00,CLR,,0.01,280.0,WeatherDisplay:10.37,2013-03-07 22:25:00,
2013-03-07 16:31:00,35.0,26.2,30.33,East,88,3.4,5.8,70,0.00,CLR,,0.01,137.2,WeatherDisplay:10.37,2013-03-07 22:31:00,
2013-03-07 16:36:00,34.7,25.9,30.32,ESE,103,1.4,3.5,70,0.00,CLR,,0.01,120.4,WeatherDisplay:10.37,2013-03-07 22:36:00,
2013-03-07 16:41:00,34.6,25.8,30.32,East,98,3.0,5.8,70,0.00,CLR,,0.01,135.8,WeatherDisplay:10.37,2013-03-07 22:41:00,
2013-03-07 16:46:00,34.6,26.2,30.32,East,90,2.6,8.0,71,0.00,CLR,,0.01,168.0,WeatherDisplay:10.37,2013-03-07 22:46:00,
2013-03-07 16:52:00,34.6,25.8,30.32,East,86,5.5,10.4,70,0.00,CLR,,0.01,155.4,WeatherDisplay:10.37,2013-03-07 22:52:00,
2013-03-07 16:57:00,34.4,25.6,30.32,East,101,3.1,5.8,70,0.00,CLR,,0.01,140.0,WeatherDisplay:10.37,2013-03-07 22:57:00,
2013-03-07 17:02:00,34.4,25.6,30.32,East,82,2.6,10.4,70,0.00,CLR,,0.01,110.6,WeatherDisplay:10.37,2013-03-07 23:02:00,
2013-03-07 17:07:00,34.4,26.0,30.33,ESE,107,1.8,3.5,71,0.00,CLR,,0.01,98.0,WeatherDisplay:10.37,2013-03-07 23:07:00,
2013-03-07 17:13:00,34.3,25.9,30.33,ENE,65,0.1,2.3,71,0.00,CLR,,0.01,88.2,WeatherDisplay:10.37,2013-03-07 23:13:00,
2013-03-07 17:18:00,34.2,25.8,30.33,NE,52,0.4,2.3,71,0.00,CLR,,0.01,74.2,WeatherDisplay:10.37,2013-03-07 23:18:00,
2013-03-07 17:23:00,34.0,25.9,30.34,East,83,0.9,3.5,72,0.00,CLR,,0.01,56.0,WeatherDisplay:10.37,2013-03-07 23:23:00,
2013-03-07 17:28:00,33.8,25.7,30.34,East,82,2.4,4.0,72,0.00,CLR,,0.01,56.0,WeatherDisplay:10.37,2013-03-07 23:28:00,
2013-03-07 17:34:00,33.6,25.9,30.35,ESE,120,1.8,4.0,73,0.00,CLR,,0.01,61.6,WeatherDisplay:10.37,2013-03-07 23:34:00,
2013-03-07 17:39:00,33.4,26.0,30.35,ENE,59,0.9,6.0,74,0.00,CLR,,0.01,58.8,WeatherDisplay:10.37,2013-03-07 23:39:00,
2013-03-07 17:44:00,33.2,25.8,30.35,East,99,1.1,3.5,74,0.00,CLR,,0.01,49.0,WeatherDisplay:10.37,2013-03-07 23:44:00,
2013-03-07 17:49:00,33.0,25.9,30.34,ESE,117,2.1,8.0,75,0.00,CLR,,0.01,46.2,WeatherDisplay:10.37,2013-03-07 23:49:00,
2013-03-07 17:55:00,32.8,25.7,30.35,SE,141,2.0,4.0,75,0.00,CLR,,0.01,35.0,WeatherDisplay:10.37,2013-03-07 23:55:00,
2013-03-07 18:00:00,32.6,25.9,30.35,ESE,109,3.3,7.0,76,0.00,CLR,,0.01,22.4,WeatherDisplay:10.37,2013-03-08 00:00:00,
2013-03-07 18:05:00,32.5,25.8,30.34,ESE,117,0.2,1.2,76,0.00,CLR,,0.01,7.0,WeatherDisplay:10.37,2013-03-08 00:05:00,
2013-03-07 18:10:00,32.3,25.9,30.34,ESE,103,1.9,5.8,77,0.00,CLR,,0.01,0.0,WeatherDisplay:10.37,2013-03-08 00:10:00,
2013-03-07 18:16:00,32.1,25.7,30.35,ESE,121,2.2,4.0,77,0.00,CLR,,0.01,0.0,WeatherDisplay:10.37,2013-03-08 00:16:00,
2013-03-07 18:21:00,32.0,25.6,30.35,NE,39,2.2,4.6,77,0.00,CLR,,0.01,0.0,WeatherDisplay:10.37,2013-03-08 00:21:00,
2013-03-07 18:26:00,31.9,25.5,30.34,East,85,1.0,6.0,77,0.00,CLR,CLR,0.01,0.0,WeatherDisplay:10.37,2013-03-08 00:26:00,
2013-03-07 18:31:00,31.7,25.6,30.34,SE,125,0.6,5.8,78,0.00,CLR,,0.01,0.0,WeatherDisplay:10.37,2013-03-08 00:31:00,
2013-03-07 18:36:00,31.7,25.3,30.35,NE,40,1.0,6.0,77,0.00,CLR,CLR,0.01,0.0,WeatherDisplay:10.37,2013-03-08 00:36:00,
2013-03-07 18:41:00,31.6,25.5,30.34,SE,138,3.2,3.5,78,0.00,CLR,,0.01,0.0,WeatherDisplay:10.37,2013-03-08 00:41:00,
2013-03-07 18:46:00,31.6,25.5,30.34,ENE,64,2.5,4.6,78,0.00,CLR,,0.01,0.0,WeatherDisplay:10.37,2013-03-08 00:46:00,
2013-03-07 18:52:00,31.6,25.5,30.34,East,82,3.2,9.0,78,0.00,CLR,,0.01,0.0,WeatherDisplay:10.37,2013-03-08 00:52:00,
2013-03-07 18:57:00,31.5,25.4,30.34,East,88,3.3,7.0,78,0.00,CLR,,0.01,0.0,WeatherDisplay:10.37,2013-03-08 00:57:00,
2013-03-07 19:02:00,31.5,25.4,30.34,ESE,104,2.2,3.5,78,0.00,CLR,,0.01,0.0,WeatherDisplay:10.37,2013-03-08 01:02:00,
2013-03-07 19:08:00,31.4,25.3,30.33,ESE,117,1.8,3.5,78,0.00,CLR,,0.01,0.0,WeatherDisplay:10.37,2013-03-08 01:08:00,
2013-03-07 19:13:00,31.3,25.2,30.33,SE,125,3.3,6.9,78,0.00,CLR,,0.01,0.0,WeatherDisplay:10.37,2013-03-08 01:13:00,
2013-03-07 19:18:00,31.2,25.4,30.33,SE,134,3.7,8.1,79,0.00,CLR,,0.01,0.0,WeatherDisplay:10.37,2013-03-08 01:18:00,
2013-03-07 19:24:00,31.1,25.3,30.33,East,90,3.4,6.9,79,0.00,CLR,,0.01,0.0,WeatherDisplay:10.37,2013-03-08 01:24:00,
2013-03-07 19:29:00,31.0,25.2,30.33,ENE,61,2.6,3.5,79,0.00,CLR,,0.01,0.0,WeatherDisplay:10.37,2013-03-08 01:29:00,
2013-03-07 19:34:00,31.0,25.2,30.33,ESE,105,2.4,4.0,79,0.00,CLR,,0.01,0.0,WeatherDisplay:10.37,2013-03-08 01:34:00,
2013-03-07 19:39:00,30.9,25.2,30.33,ENE,76,0.7,3.5,79,0.00,CLR,,0.01,0.0,WeatherDisplay:10.37,2013-03-08 01:39:00,
2013-03-07 19:45:00,30.8,25.4,30.33,East,92,1.5,5.8,80,0.00,CLR,,0.01,0.0,WeatherDisplay:10.37,2013-03-08 01:45:00,
2013-03-07 19:50:00,30.7,25.3,30.34,SE,124,1.1,4.0,80,0.00,CLR,,0.01,0.0,WeatherDisplay:10.37,2013-03-08 01:50:00,
2013-03-07 19:55:00,30.7,25.3,30.34,East,86,1.4,8.1,80,0.00,CLR,,0.01,0.0,WeatherDisplay:10.37,2013-03-08 01:55:00,
2013-03-07 20:00:00,30.6,25.2,30.34,ENE,65,3.5,9.2,80,0.00,CLR,,0.01,0.0,WeatherDisplay:10.37,2013-03-08 02:00:00,
2013-03-07 20:06:00,30.5,25.4,30.34,ESE,107,0.6,2.3,81,0.00,CLR,,0.01,0.0,WeatherDisplay:10.37,2013-03-08 02:06:00,
2013-03-07 20:11:00,30.4,25.3,30.34,East,81,2.4,9.2,81,0.00,CLR,,0.01,0.0,WeatherDisplay:10.37,2013-03-08 02:11:00,
2013-03-07 20:16:00,30.3,25.2,30.35,East,80,1.3,5.8,81,0.00,CLR,,0.01,0.0,WeatherDisplay:10.37,2013-03-08 02:16:00,
2013-03-07 20:21:00,30.2,25.1,30.35,ESE,111,2.7,4.6,81,0.00,CLR,,0.01,0.0,WeatherDisplay:10.37,2013-03-08 02:21:00,
2013-03-07 20:27:00,30.2,25.1,30.35,ESE,115,2.2,3.5,81,0.00,CLR,,0.01,0.0,WeatherDisplay:10.37,2013-03-08 02:27:00,
2013-03-07 20:32:00,30.2,25.1,30.35,ESE,121,2.5,10.4,81,0.00,CLR,,0.01,0.0,WeatherDisplay:10.37,2013-03-08 02:32:00,
2013-03-07 20:37:00,30.1,25.0,30.35,ESE,121,0.7,4.0,81,0.00,CLR,,0.01,0.0,WeatherDisplay:10.37,2013-03-08 02:37:00,
2013-03-07 20:42:00,30.1,25.0,30.35,ENE,72,2.2,9.2,81,0.00,CLR,,0.01,0.0,WeatherDisplay:10.37,2013-03-08 02:42:00,
2013-03-07 20:48:00,30.0,24.9,30.36,East,92,2.3,3.5,81,0.00,CLR,,0.01,0.0,WeatherDisplay:10.37,2013-03-08 02:48:00,
2013-03-07 20:53:00,29.9,24.8,30.36,ENE,62,2.0,3.5,81,0.00,CLR,,0.01,0.0,WeatherDisplay:10.37,2013-03-08 02:53:00,
2013-03-07 20:58:00,29.9,25.1,30.36,ESE,104,2.3,3.5,82,0.00,CLR,,0.01,0.0,WeatherDisplay:10.37,2013-03-08 02:58:00,
2013-03-07 21:03:00,29.8,25.0,30.36,ESE,105,2.3,3.5,82,0.00,CLR,,0.01,0.0,WeatherDisplay:10.37,2013-03-08 03:03:00,
2013-03-07 21:06:00,29.2,24.7,30.37,NE,55,0.0,7.0,83,0.00,RA,RA,0.01,0.0,WeatherDisplay:10.37,2013-03-08 03:06:00,
2013-03-07 21:09:00,29.7,24.9,30.36,SE,136,2.8,4.6,82,0.00,CLR,,0.01,0.0,WeatherDisplay:10.37,2013-03-08 03:09:00,
2013-03-07 21:14:00,29.7,24.9,30.36,East,97,2.1,3.5,82,0.00,CLR,,0.01,0.0,WeatherDisplay:10.37,2013-03-08 03:14:00,
2013-03-07 21:19:00,29.6,24.8,30.36,ENE,71,2.1,3.5,82,0.00,CLR,,0.01,0.0,WeatherDisplay:10.37,2013-03-08 03:19:00,
2013-03-07 21:25:00,29.6,24.8,30.36,ESE,104,1.8,6.0,82,0.00,CLR,,0.01,0.0,WeatherDisplay:10.37,2013-03-08 03:25:00,
2013-03-07 21:30:00,29.5,24.7,30.37,SE,125,2.8,3.5,82,0.00,CLR,,0.01,0.0,WeatherDisplay:10.37,2013-03-08 03:30:00,
2013-03-07 21:35:00,29.5,24.7,30.37,ESE,113,0.7,3.0,82,0.00,CLR,,0.01,0.0,WeatherDisplay:10.37,2013-03-08 03:35:00,
2013-03-07 21:40:00,29.4,24.9,30.37,ESE,123,3.2,5.0,83,0.00,CLR,,0.01,0.0,WeatherDisplay:10.37,2013-03-08 03:40:00,
2013-03-07 21:46:00,29.4,24.9,30.37,ESE,103,4.5,5.8,83,0.00,CLR,,0.01,0.0,WeatherDisplay:10.37,2013-03-08 03:46:00,
2013-03-07 21:51:00,29.4,24.9,30.37,East,90,1.2,2.3,83,0.00,CLR,,0.01,0.0,WeatherDisplay:10.37,2013-03-08 03:51:00,
2013-03-07 21:56:00,29.3,24.8,30.37,ESE,107,2.0,6.0,83,0.00,CLR,CLR,0.01,0.0,WeatherDisplay:10.37,2013-03-08 03:56:00,
2013-03-07 22:01:00,29.3,24.8,30.37,SE,140,1.4,5.0,83,0.00,CLR,,0.01,0.0,WeatherDisplay:10.37,2013-03-08 04:01:00,
2013-03-07 22:11:00,29.1,24.6,30.37,ENE,76,2.5,6.0,83,0.00,CLR,,0.01,0.0,WeatherDisplay:10.37,2013-03-08 04:11:00,
2013-03-07 22:16:00,29.1,24.6,30.37,ESE,122,2.0,5.8,83,0.00,CLR,,0.01,0.0,WeatherDisplay:10.37,2013-03-08 04:16:00,
2013-03-07 22:22:00,29.0,24.5,30.37,ESE,121,1.5,3.5,83,0.00,CLR,,0.01,0.0,WeatherDisplay:10.37,2013-03-08 04:22:00,
2013-03-07 22:27:00,28.9,24.4,30.37,ESE,115,1.2,2.3,83,0.00,CLR,,0.01,0.0,WeatherDisplay:10.37,2013-03-08 04:27:00,
2013-03-07 22:32:00,28.8,24.6,30.37,SE,128,1.8,5.8,84,0.00,CLR,,0.01,0.0,WeatherDisplay:10.37,2013-03-08 04:32:00,
2013-03-07 22:37:00,28.8,24.6,30.36,ESE,105,1.9,3.5,84,0.00,CLR,,0.01,0.0,WeatherDisplay:10.37,2013-03-08 04:37:00,
2013-03-07 22:43:00,28.7,24.5,30.36,East,99,1.4,3.5,84,0.00,CLR,,0.01,0.0,WeatherDisplay:10.37,2013-03-08 04:43:00,
2013-03-07 22:48:00,28.7,24.5,30.36,ESE,104,0.9,3.5,84,0.00,CLR,,0.01,0.0,WeatherDisplay:10.37,2013-03-08 04:48:00,
2013-03-07 22:53:00,28.6,24.4,30.36,ESE,109,1.3,2.3,84,0.00,CLR,,0.01,0.0,WeatherDisplay:10.37,2013-03-08 04:53:00,
2013-03-07 22:58:00,28.5,24.3,30.35,ESE,104,2.4,3.5,84,0.00,CLR,,0.01,0.0,WeatherDisplay:10.37,2013-03-08 04:58:00,
2013-03-07 23:00:00,28.5,24.6,30.35,SE,125,1.9,2.3,85,0.00,CLR,,0.01,0.0,WeatherDisplay:10.37,2013-03-08 05:00:00,
2013-03-07 23:01:00,28.5,24.3,30.35,SE,128,2.5,4.0,84,0.00,CLR,,0.01,0.0,WeatherDisplay:10.37,2013-03-08 05:01:00,
2013-03-07 23:06:00,28.4,24.5,30.35,SE,134,1.5,3.5,85,0.00,CLR,,0.01,0.0,WeatherDisplay:10.37,2013-03-08 05:06:00,
2013-03-07 23:12:00,28.5,24.6,30.35,ESE,111,3.9,6.9,85,0.00,CLR,,0.01,0.0,WeatherDisplay:10.37,2013-03-08 05:12:00,
2013-03-07 23:17:00,28.4,24.5,30.35,East,94,2.3,3.5,85,0.00,CLR,,0.01,0.0,WeatherDisplay:10.37,2013-03-08 05:17:00,
2013-03-07 23:22:00,28.4,24.5,30.35,ESE,122,2.2,3.5,85,0.00,CLR,,0.01,0.0,WeatherDisplay:10.37,2013-03-08 05:22:00,
2013-03-07 23:27:00,28.3,24.4,30.35,ESE,119,1.6,5.0,85,0.00,CLR,,0.01,0.0,WeatherDisplay:10.37,2013-03-08 05:27:00,
2013-03-07 23:33:00,28.4,24.5,30.35,East,84,2.7,4.6,85,0.00,CLR,,0.01,0.0,WeatherDisplay:10.37,2013-03-08 05:33:00,
2013-03-07 23:38:00,28.5,24.6,30.35,ESE,109,1.9,3.5,85,0.00,CLR,,0.01,0.0,WeatherDisplay:10.37,2013-03-08 05:38:00,
2013-03-07 23:43:00,28.5,24.6,30.35,ESE,113,1.3,3.5,85,0.00,CLR,,0.01,0.0,WeatherDisplay:10.37,2013-03-08 05:43:00,
2013-03-07 23:48:00,28.4,24.5,30.35,ESE,112,2.6,4.0,85,0.00,CLR,,0.01,0.0,WeatherDisplay:10.37,2013-03-08 05:48:00,
2013-03-07 23:54:00,28.4,24.5,30.35,ESE,113,1.1,3.5,85,0.00,CLR,,0.01,0.0,WeatherDisplay:10.37,2013-03-08 05:54:00,
2013-03-07 23:59:00,28.4,24.5,30.35,ESE,123,1.5,3.5,85,0.00,CLR,,0.01,0.0,WeatherDisplay:10.37,2013-03-08 05:59:00,